Aeroporto :
LOGIN :

Iscrizione | Disclaimer

   EN    FR    IT 

 










Sommario :    VFR   VFR Marginale   IFR   IFR Intensivo   IFR Molto Intensivo
Visibilità : 
Base nubi : 
>= 8 km
>= 3000ft
5 / 8 km
1000 / 3000 ft
1500m / 5 km
500 / 1000 ft
800 / 1500m
200 / 500 ft
< 800m
< 200 ft
Simboli :   Temporali  Nebbia  Neve Forte  Precipitazioni Forti  Vento > 20 kt
SIGMETs :   Varie  Temporali  Ghiacco  Turbolenza  Onda orograficha  Ceneri Vulcaniche






- Altitudine del aeroporto : 200 ft
- Codice IATA : TCE


LRTC - Tulcea

ULTIMO METAR :
  • 011430Z 34021KT 1500 SN BR FEW007 BKN011 OVC033 M00/M01 Q1022

METARs OBSOLETI :
  • 011400Z 34021KT 3000 -SN BR SCT010 OVC036 M00/M01 Q1022 RESN
  • 011330Z 34021KT 1500 SN BR SCT010 OVC034 M00/M01 Q1022
  • 011300Z 34021KT 2000 SN BR BKN015 OVC035 M00/M01 Q1022
  • 011230Z 34020KT 2000 -SN BR FEW009 SCT017 OVC035 M00/M01 Q1022
  • 011200Z 34018KT 1500 -SN BR FEW009 BKN019 OVC030 M00/M01 Q1022

TAF TAF LRTC
Valido dal 01 a 15 ore il 02 a 00 ore UTC


011400Z 0115/0200 34020KT 3000 -SN BR BKN015 OVC035
TEMPO 0115/0119 1500 SN BR BKN010 OVC025
BECMG 0119/0121 34010KT



MetMap, La meteo Aeronautica in un colpo d'occhio ! - Copyright ORBIFLY Dicembre 2007 - Disclaimer

ORBIFLY MET'MAP TEAM :

Programmazione e sviluppo : Alexandra Zaïnal
Concezione : Baudouin d'Aumeries
Aiuto per la programmazione : Marc-Olivier Méhu
Supporto tecnico e logistico : Manuel Goepfert
Aiuto per la traduzione : Arnaldo La Scala

Contatto : metmap@orbifly.com




FONTI E CREDITI :

   NOAA